sensor_id;sensor_type;location;lat;lon;timestamp;pressure;altitude;pressure_sealevel;temperature
14851;BMP180;7517;48.400;11.770;2023-12-29T00:02:18;96563.00;;;11.90
14851;BMP180;7517;48.400;11.770;2023-12-29T00:04:45;96556.00;;;11.90
14851;BMP180;7517;48.400;11.770;2023-12-29T00:07:12;96554.00;;;11.80
14851;BMP180;7517;48.400;11.770;2023-12-29T00:09:39;96547.00;;;11.70
14851;BMP180;7517;48.400;11.770;2023-12-29T00:12:09;96544.00;;;11.60
14851;BMP180;7517;48.400;11.770;2023-12-29T00:14:38;96542.00;;;11.50
14851;BMP180;7517;48.400;11.770;2023-12-29T00:17:05;96539.00;;;11.50
14851;BMP180;7517;48.400;11.770;2023-12-29T00:19:32;96547.00;;;11.40
14851;BMP180;7517;48.400;11.770;2023-12-29T00:21:59;96544.00;;;11.30
14851;BMP180;7517;48.400;11.770;2023-12-29T00:24:29;96537.00;;;11.30
14851;BMP180;7517;48.400;11.770;2023-12-29T00:26:57;96539.00;;;11.20
14851;BMP180;7517;48.400;11.770;2023-12-29T00:29:29;96530.00;;;11.20
14851;BMP180;7517;48.400;11.770;2023-12-29T00:31:58;96525.00;;;11.20
14851;BMP180;7517;48.400;11.770;2023-12-29T00:34:26;96524.00;;;11.20
14851;BMP180;7517;48.400;11.770;2023-12-29T00:36:53;96535.00;;;11.10
14851;BMP180;7517;48.400;11.770;2023-12-29T00:39:20;96534.00;;;11.10
14851;BMP180;7517;48.400;11.770;2023-12-29T00:41:54;96521.00;;;11.10
14851;BMP180;7517;48.400;11.770;2023-12-29T00:44:22;96536.00;;;11.00
14851;BMP180;7517;48.400;11.770;2023-12-29T00:46:50;96529.00;;;11.00
14851;BMP180;7517;48.400;11.770;2023-12-29T00:49:18;96535.00;;;10.90
14851;BMP180;7517;48.400;11.770;2023-12-29T00:51:47;96533.00;;;10.90
14851;BMP180;7517;48.400;11.770;2023-12-29T00:54:15;96531.00;;;10.90
14851;BMP180;7517;48.400;11.770;2023-12-29T00:56:48;96534.00;;;10.90
14851;BMP180;7517;48.400;11.770;2023-12-29T00:59:15;96534.00;;;10.90
14851;BMP180;7517;48.400;11.770;2023-12-29T01:01:42;96538.00;;;10.90
14851;BMP180;7517;48.400;11.770;2023-12-29T01:04:11;96537.00;;;10.90
14851;BMP180;7517;48.400;11.770;2023-12-29T01:06:38;96527.00;;;10.90
14851;BMP180;7517;48.400;11.770;2023-12-29T01:09:06;96532.00;;;10.80
14851;BMP180;7517;48.400;11.770;2023-12-29T01:11:36;96538.00;;;10.80
14851;BMP180;7517;48.400;11.770;2023-12-29T01:14:03;96537.00;;;10.80
14851;BMP180;7517;48.400;11.770;2023-12-29T01:16:31;96549.00;;;10.70
14851;BMP180;7517;48.400;11.770;2023-12-29T01:18:58;96532.00;;;10.70
14851;BMP180;7517;48.400;11.770;2023-12-29T01:21:27;96539.00;;;10.60
14851;BMP180;7517;48.400;11.770;2023-12-29T01:23:54;96532.00;;;10.50
14851;BMP180;7517;48.400;11.770;2023-12-29T01:26:21;96534.00;;;10.50
14851;BMP180;7517;48.400;11.770;2023-12-29T01:28:48;96527.00;;;10.40
14851;BMP180;7517;48.400;11.770;2023-12-29T01:31:15;96532.00;;;10.40
14851;BMP180;7517;48.400;11.770;2023-12-29T01:33:42;96537.00;;;10.30
14851;BMP180;7517;48.400;11.770;2023-12-29T01:36:17;96530.00;;;10.30
14851;BMP180;7517;48.400;11.770;2023-12-29T01:38:46;96533.00;;;10.20
14851;BMP180;7517;48.400;11.770;2023-12-29T01:41:13;96536.00;;;10.10
14851;BMP180;7517;48.400;11.770;2023-12-29T01:44:17;96531.00;;;10.00
14851;BMP180;7517;48.400;11.770;2023-12-29T01:46:46;96530.00;;;10.00
14851;BMP180;7517;48.400;11.770;2023-12-29T01:49:15;96532.00;;;9.90
14851;BMP180;7517;48.400;11.770;2023-12-29T01:51:43;96523.00;;;9.80
14851;BMP180;7517;48.400;11.770;2023-12-29T01:54:13;96525.00;;;9.80
14851;BMP180;7517;48.400;11.770;2023-12-29T01:56:41;96517.00;;;9.70
14851;BMP180;7517;48.400;11.770;2023-12-29T01:59:09;96513.00;;;9.60
14851;BMP180;7517;48.400;11.770;2023-12-29T02:01:38;96515.00;;;9.60
14851;BMP180;7517;48.400;11.770;2023-12-29T02:04:07;96504.00;;;9.50
14851;BMP180;7517;48.400;11.770;2023-12-29T02:06:34;96509.00;;;9.50
14851;BMP180;7517;48.400;11.770;2023-12-29T02:09:02;96507.00;;;9.40
14851;BMP180;7517;48.400;11.770;2023-12-29T02:11:32;96506.00;;;9.30
14851;BMP180;7517;48.400;11.770;2023-12-29T02:14:00;96510.00;;;9.30
14851;BMP180;7517;48.400;11.770;2023-12-29T02:16:46;96496.00;;;9.30
14851;BMP180;7517;48.400;11.770;2023-12-29T02:19:36;96512.00;;;9.20
14851;BMP180;7517;48.400;11.770;2023-12-29T02:22:05;96502.00;;;9.10
14851;BMP180;7517;48.400;11.770;2023-12-29T02:24:34;96499.00;;;9.10
14851;BMP180;7517;48.400;11.770;2023-12-29T02:27:15;96505.00;;;9.00
14851;BMP180;7517;48.400;11.770;2023-12-29T02:29:58;96501.00;;;9.00
14851;BMP180;7517;48.400;11.770;2023-12-29T02:32:29;96489.00;;;8.90
14851;BMP180;7517;48.400;11.770;2023-12-29T02:34:59;96470.00;;;8.90
14851;BMP180;7517;48.400;11.770;2023-12-29T02:37:27;96470.00;;;8.80
14851;BMP180;7517;48.400;11.770;2023-12-29T02:39:59;96472.00;;;8.80
14851;BMP180;7517;48.400;11.770;2023-12-29T02:42:27;96464.00;;;8.80
14851;BMP180;7517;48.400;11.770;2023-12-29T02:44:55;96455.00;;;8.70
14851;BMP180;7517;48.400;11.770;2023-12-29T02:47:22;96443.00;;;8.70
14851;BMP180;7517;48.400;11.770;2023-12-29T02:49:49;96441.00;;;8.60
14851;BMP180;7517;48.400;11.770;2023-12-29T02:52:16;96446.00;;;8.60
14851;BMP180;7517;48.400;11.770;2023-12-29T02:54:43;96443.00;;;8.60
14851;BMP180;7517;48.400;11.770;2023-12-29T02:57:10;96457.00;;;8.60
14851;BMP180;7517;48.400;11.770;2023-12-29T02:59:39;96443.00;;;8.60
14851;BMP180;7517;48.400;11.770;2023-12-29T03:02:06;96435.00;;;8.60
14851;BMP180;7517;48.400;11.770;2023-12-29T03:04:33;96441.00;;;8.60
14851;BMP180;7517;48.400;11.770;2023-12-29T03:07:00;96435.00;;;8.60
14851;BMP180;7517;48.400;11.770;2023-12-29T03:09:27;96432.00;;;8.50
14851;BMP180;7517;48.400;11.770;2023-12-29T03:11:54;96427.00;;;8.60
14851;BMP180;7517;48.400;11.770;2023-12-29T03:14:22;96427.00;;;8.60
14851;BMP180;7517;48.400;11.770;2023-12-29T03:16:50;96420.00;;;8.60
14851;BMP180;7517;48.400;11.770;2023-12-29T03:19:17;96418.00;;;8.60
14851;BMP180;7517;48.400;11.770;2023-12-29T03:21:44;96420.00;;;8.60
14851;BMP180;7517;48.400;11.770;2023-12-29T03:24:12;96420.00;;;8.60
14851;BMP180;7517;48.400;11.770;2023-12-29T03:26:39;96418.00;;;8.60
14851;BMP180;7517;48.400;11.770;2023-12-29T03:29:06;96415.00;;;8.70
14851;BMP180;7517;48.400;11.770;2023-12-29T03:31:34;96416.00;;;8.60
14851;BMP180;7517;48.400;11.770;2023-12-29T03:34:02;96411.00;;;8.60
14851;BMP180;7517;48.400;11.770;2023-12-29T03:36:29;96410.00;;;8.60
14851;BMP180;7517;48.400;11.770;2023-12-29T03:38:57;96412.00;;;8.60
14851;BMP180;7517;48.400;11.770;2023-12-29T03:41:24;96413.00;;;8.60
14851;BMP180;7517;48.400;11.770;2023-12-29T03:43:51;96415.00;;;8.50
14851;BMP180;7517;48.400;11.770;2023-12-29T03:46:20;96411.00;;;8.50
14851;BMP180;7517;48.400;11.770;2023-12-29T03:48:48;96411.00;;;8.40
14851;BMP180;7517;48.400;11.770;2023-12-29T03:51:18;96412.00;;;8.40
14851;BMP180;7517;48.400;11.770;2023-12-29T03:53:46;96419.00;;;8.40
14851;BMP180;7517;48.400;11.770;2023-12-29T03:56:14;96417.00;;;8.30
14851;BMP180;7517;48.400;11.770;2023-12-29T03:58:42;96411.00;;;8.30
14851;BMP180;7517;48.400;11.770;2023-12-29T04:01:10;96393.00;;;8.30
14851;BMP180;7517;48.400;11.770;2023-12-29T04:03:48;96406.00;;;8.30
14851;BMP180;7517;48.400;11.770;2023-12-29T04:06:17;96410.00;;;8.30
14851;BMP180;7517;48.400;11.770;2023-12-29T04:08:44;96412.00;;;8.40
14851;BMP180;7517;48.400;11.770;2023-12-29T04:11:11;96403.00;;;8.40
14851;BMP180;7517;48.400;11.770;2023-12-29T04:13:39;96411.00;;;8.40
14851;BMP180;7517;48.400;11.770;2023-12-29T04:16:06;96413.00;;;8.50
14851;BMP180;7517;48.400;11.770;2023-12-29T04:18:33;96404.00;;;8.50
14851;BMP180;7517;48.400;11.770;2023-12-29T04:21:00;96403.00;;;8.50
14851;BMP180;7517;48.400;11.770;2023-12-29T04:23:29;96397.00;;;8.60
14851;BMP180;7517;48.400;11.770;2023-12-29T04:25:56;96390.00;;;8.60
14851;BMP180;7517;48.400;11.770;2023-12-29T04:28:23;96400.00;;;8.70
14851;BMP180;7517;48.400;11.770;2023-12-29T04:30:50;96398.00;;;8.70
14851;BMP180;7517;48.400;11.770;2023-12-29T04:33:18;96412.00;;;8.70
14851;BMP180;7517;48.400;11.770;2023-12-29T04:35:45;96409.00;;;8.80
14851;BMP180;7517;48.400;11.770;2023-12-29T04:38:17;96402.00;;;8.80
14851;BMP180;7517;48.400;11.770;2023-12-29T04:40:47;96390.00;;;8.90
14851;BMP180;7517;48.400;11.770;2023-12-29T04:43:14;96399.00;;;8.90
14851;BMP180;7517;48.400;11.770;2023-12-29T04:45:41;96404.00;;;8.90
14851;BMP180;7517;48.400;11.770;2023-12-29T04:48:08;96404.00;;;9.00
14851;BMP180;7517;48.400;11.770;2023-12-29T04:50:36;96409.00;;;9.00
14851;BMP180;7517;48.400;11.770;2023-12-29T04:53:09;96407.00;;;9.00
14851;BMP180;7517;48.400;11.770;2023-12-29T04:55:36;96397.00;;;9.00
14851;BMP180;7517;48.400;11.770;2023-12-29T04:58:04;96400.00;;;9.10
14851;BMP180;7517;48.400;11.770;2023-12-29T05:00:32;96399.00;;;9.10
14851;BMP180;7517;48.400;11.770;2023-12-29T05:02:59;96402.00;;;9.20
14851;BMP180;7517;48.400;11.770;2023-12-29T05:05:27;96397.00;;;9.20
14851;BMP180;7517;48.400;11.770;2023-12-29T05:07:54;96398.00;;;9.30
14851;BMP180;7517;48.400;11.770;2023-12-29T05:10:21;96395.00;;;9.30
14851;BMP180;7517;48.400;11.770;2023-12-29T05:12:49;96386.00;;;9.30
14851;BMP180;7517;48.400;11.770;2023-12-29T05:15:17;96387.00;;;9.30
14851;BMP180;7517;48.400;11.770;2023-12-29T05:17:44;96389.00;;;9.30
14851;BMP180;7517;48.400;11.770;2023-12-29T05:20:12;96392.00;;;9.30
14851;BMP180;7517;48.400;11.770;2023-12-29T05:22:39;96389.00;;;9.30
14851;BMP180;7517;48.400;11.770;2023-12-29T05:25:07;96397.00;;;9.40
14851;BMP180;7517;48.400;11.770;2023-12-29T05:27:34;96398.00;;;9.40
14851;BMP180;7517;48.400;11.770;2023-12-29T05:30:02;96393.00;;;9.40
14851;BMP180;7517;48.400;11.770;2023-12-29T05:32:31;96393.00;;;9.40
14851;BMP180;7517;48.400;11.770;2023-12-29T05:34:58;96401.00;;;9.40
14851;BMP180;7517;48.400;11.770;2023-12-29T05:37:25;96396.00;;;9.30
14851;BMP180;7517;48.400;11.770;2023-12-29T05:39:52;96397.00;;;9.30
14851;BMP180;7517;48.400;11.770;2023-12-29T05:42:19;96400.00;;;9.30
14851;BMP180;7517;48.400;11.770;2023-12-29T05:44:47;96402.00;;;9.30
14851;BMP180;7517;48.400;11.770;2023-12-29T05:47:15;96404.00;;;9.30
14851;BMP180;7517;48.400;11.770;2023-12-29T05:49:44;96414.00;;;9.30
14851;BMP180;7517;48.400;11.770;2023-12-29T05:52:11;96417.00;;;9.40
14851;BMP180;7517;48.400;11.770;2023-12-29T05:54:41;96412.00;;;9.40
14851;BMP180;7517;48.400;11.770;2023-12-29T05:57:08;96417.00;;;9.40
14851;BMP180;7517;48.400;11.770;2023-12-29T05:59:36;96408.00;;;9.50
14851;BMP180;7517;48.400;11.770;2023-12-29T06:02:04;96419.00;;;9.50
14851;BMP180;7517;48.400;11.770;2023-12-29T06:04:31;96426.00;;;9.60
14851;BMP180;7517;48.400;11.770;2023-12-29T06:06:59;96422.00;;;9.60
14851;BMP180;7517;48.400;11.770;2023-12-29T06:09:28;96428.00;;;9.60
14851;BMP180;7517;48.400;11.770;2023-12-29T06:11:55;96431.00;;;9.70
14851;BMP180;7517;48.400;11.770;2023-12-29T06:14:23;96429.00;;;9.70
14851;BMP180;7517;48.400;11.770;2023-12-29T06:16:50;96429.00;;;9.70
14851;BMP180;7517;48.400;11.770;2023-12-29T06:19:19;96429.00;;;9.80
14851;BMP180;7517;48.400;11.770;2023-12-29T06:21:46;96429.00;;;9.80
14851;BMP180;7517;48.400;11.770;2023-12-29T06:24:15;96424.00;;;9.80
14851;BMP180;7517;48.400;11.770;2023-12-29T06:26:42;96430.00;;;9.90
14851;BMP180;7517;48.400;11.770;2023-12-29T06:29:10;96427.00;;;9.90
14851;BMP180;7517;48.400;11.770;2023-12-29T06:31:40;96433.00;;;9.90
14851;BMP180;7517;48.400;11.770;2023-12-29T06:34:08;96424.00;;;9.90
14851;BMP180;7517;48.400;11.770;2023-12-29T06:36:36;96424.00;;;9.90
14851;BMP180;7517;48.400;11.770;2023-12-29T06:39:03;96428.00;;;10.00
14851;BMP180;7517;48.400;11.770;2023-12-29T06:41:31;96428.00;;;10.00
14851;BMP180;7517;48.400;11.770;2023-12-29T06:43:59;96432.00;;;10.00
14851;BMP180;7517;48.400;11.770;2023-12-29T06:46:26;96423.00;;;10.00
14851;BMP180;7517;48.400;11.770;2023-12-29T06:48:53;96420.00;;;10.00
14851;BMP180;7517;48.400;11.770;2023-12-29T06:51:20;96426.00;;;10.10
14851;BMP180;7517;48.400;11.770;2023-12-29T06:53:49;96419.00;;;10.10
14851;BMP180;7517;48.400;11.770;2023-12-29T06:56:16;96413.00;;;10.10
14851;BMP180;7517;48.400;11.770;2023-12-29T06:58:45;96429.00;;;10.20
14851;BMP180;7517;48.400;11.770;2023-12-29T07:01:13;96426.00;;;10.30
14851;BMP180;7517;48.400;11.770;2023-12-29T07:03:41;96431.00;;;10.40
14851;BMP180;7517;48.400;11.770;2023-12-29T07:06:10;96424.00;;;10.50
14851;BMP180;7517;48.400;11.770;2023-12-29T07:08:37;96424.00;;;10.50
14851;BMP180;7517;48.400;11.770;2023-12-29T07:11:09;96427.00;;;10.70
14851;BMP180;7517;48.400;11.770;2023-12-29T07:13:36;96427.00;;;10.80
14851;BMP180;7517;48.400;11.770;2023-12-29T07:16:06;96440.00;;;10.90
14851;BMP180;7517;48.400;11.770;2023-12-29T07:18:33;96441.00;;;11.00
14851;BMP180;7517;48.400;11.770;2023-12-29T07:21:00;96439.00;;;11.10
14851;BMP180;7517;48.400;11.770;2023-12-29T07:23:28;96440.00;;;11.20
14851;BMP180;7517;48.400;11.770;2023-12-29T07:25:55;96449.00;;;11.30
14851;BMP180;7517;48.400;11.770;2023-12-29T07:28:22;96449.00;;;11.40
14851;BMP180;7517;48.400;11.770;2023-12-29T07:30:50;96450.00;;;11.50
14851;BMP180;7517;48.400;11.770;2023-12-29T07:33:19;96448.00;;;11.50
14851;BMP180;7517;48.400;11.770;2023-12-29T07:35:46;96451.00;;;11.60
14851;BMP180;7517;48.400;11.770;2023-12-29T07:38:13;96453.00;;;11.70
14851;BMP180;7517;48.400;11.770;2023-12-29T07:40:40;96446.00;;;11.80
14851;BMP180;7517;48.400;11.770;2023-12-29T07:43:08;96453.00;;;11.90
14851;BMP180;7517;48.400;11.770;2023-12-29T07:45:35;96453.00;;;11.90
14851;BMP180;7517;48.400;11.770;2023-12-29T07:48:04;96463.00;;;12.00
14851;BMP180;7517;48.400;11.770;2023-12-29T07:50:33;96455.00;;;12.10
14851;BMP180;7517;48.400;11.770;2023-12-29T07:53:01;96461.00;;;12.10
14851;BMP180;7517;48.400;11.770;2023-12-29T07:55:28;96459.00;;;12.20
14851;BMP180;7517;48.400;11.770;2023-12-29T07:57:56;96456.00;;;12.20
14851;BMP180;7517;48.400;11.770;2023-12-29T08:00:23;96464.00;;;12.30
14851;BMP180;7517;48.400;11.770;2023-12-29T08:02:50;96462.00;;;12.30
14851;BMP180;7517;48.400;11.770;2023-12-29T08:05:18;96463.00;;;12.30
14851;BMP180;7517;48.400;11.770;2023-12-29T08:07:47;96474.00;;;12.30
14851;BMP180;7517;48.400;11.770;2023-12-29T08:10:15;96463.00;;;12.30
14851;BMP180;7517;48.400;11.770;2023-12-29T08:12:44;96467.00;;;12.40
14851;BMP180;7517;48.400;11.770;2023-12-29T08:15:13;96479.00;;;12.40
14851;BMP180;7517;48.400;11.770;2023-12-29T08:17:42;96475.00;;;12.40
14851;BMP180;7517;48.400;11.770;2023-12-29T08:20:11;96473.00;;;12.40
14851;BMP180;7517;48.400;11.770;2023-12-29T08:22:39;96474.00;;;12.40
14851;BMP180;7517;48.400;11.770;2023-12-29T08:25:09;96472.00;;;12.40
14851;BMP180;7517;48.400;11.770;2023-12-29T08:27:37;96468.00;;;12.40
14851;BMP180;7517;48.400;11.770;2023-12-29T08:30:08;96484.00;;;12.50
14851;BMP180;7517;48.400;11.770;2023-12-29T08:32:36;96490.00;;;12.50
14851;BMP180;7517;48.400;11.770;2023-12-29T08:35:04;96479.00;;;12.50
14851;BMP180;7517;48.400;11.770;2023-12-29T08:37:32;96487.00;;;12.50
14851;BMP180;7517;48.400;11.770;2023-12-29T08:39:59;96479.00;;;12.60
14851;BMP180;7517;48.400;11.770;2023-12-29T08:42:28;96483.00;;;12.60
14851;BMP180;7517;48.400;11.770;2023-12-29T08:44:55;96477.00;;;12.60
14851;BMP180;7517;48.400;11.770;2023-12-29T08:47:22;96479.00;;;12.70
14851;BMP180;7517;48.400;11.770;2023-12-29T08:49:49;96474.00;;;12.70
14851;BMP180;7517;48.400;11.770;2023-12-29T08:52:17;96485.00;;;12.70
14851;BMP180;7517;48.400;11.770;2023-12-29T08:54:44;96484.00;;;12.70
14851;BMP180;7517;48.400;11.770;2023-12-29T08:57:11;96491.00;;;12.80
14851;BMP180;7517;48.400;11.770;2023-12-29T08:59:39;96476.00;;;12.80
14851;BMP180;7517;48.400;11.770;2023-12-29T09:02:07;96467.00;;;12.90
14851;BMP180;7517;48.400;11.770;2023-12-29T09:04:34;96465.00;;;12.90
14851;BMP180;7517;48.400;11.770;2023-12-29T09:07:01;96475.00;;;12.90
14851;BMP180;7517;48.400;11.770;2023-12-29T09:09:30;96473.00;;;13.00
14851;BMP180;7517;48.400;11.770;2023-12-29T09:11:57;96473.00;;;13.10
14851;BMP180;7517;48.400;11.770;2023-12-29T09:14:24;96474.00;;;13.10
14851;BMP180;7517;48.400;11.770;2023-12-29T09:16:53;96487.00;;;13.20
14851;BMP180;7517;48.400;11.770;2023-12-29T09:19:20;96480.00;;;13.20
14851;BMP180;7517;48.400;11.770;2023-12-29T09:21:47;96485.00;;;13.30
14851;BMP180;7517;48.400;11.770;2023-12-29T09:24:14;96487.00;;;13.30
14851;BMP180;7517;48.400;11.770;2023-12-29T09:26:41;96491.00;;;13.40
14851;BMP180;7517;48.400;11.770;2023-12-29T09:29:08;96504.00;;;13.40
14851;BMP180;7517;48.400;11.770;2023-12-29T09:31:36;96498.00;;;13.40
14851;BMP180;7517;48.400;11.770;2023-12-29T09:34:04;96500.00;;;13.50
14851;BMP180;7517;48.400;11.770;2023-12-29T09:36:31;96495.00;;;13.50
14851;BMP180;7517;48.400;11.770;2023-12-29T09:38:58;96498.00;;;13.50
14851;BMP180;7517;48.400;11.770;2023-12-29T09:41:28;96501.00;;;13.60
14851;BMP180;7517;48.400;11.770;2023-12-29T09:43:59;96494.00;;;13.60
14851;BMP180;7517;48.400;11.770;2023-12-29T09:46:32;96498.00;;;13.70
14851;BMP180;7517;48.400;11.770;2023-12-29T09:49:06;96488.00;;;13.70
14851;BMP180;7517;48.400;11.770;2023-12-29T09:51:36;96488.00;;;13.70
14851;BMP180;7517;48.400;11.770;2023-12-29T09:54:04;96484.00;;;13.80
14851;BMP180;7517;48.400;11.770;2023-12-29T09:56:35;96492.00;;;13.80
14851;BMP180;7517;48.400;11.770;2023-12-29T09:59:04;96499.00;;;13.90
14851;BMP180;7517;48.400;11.770;2023-12-29T10:01:33;96490.00;;;14.00
14851;BMP180;7517;48.400;11.770;2023-12-29T10:04:01;96493.00;;;14.00
14851;BMP180;7517;48.400;11.770;2023-12-29T10:06:36;96491.00;;;14.10
14851;BMP180;7517;48.400;11.770;2023-12-29T10:09:10;96486.00;;;14.20
14851;BMP180;7517;48.400;11.770;2023-12-29T10:11:42;96483.00;;;14.40
14851;BMP180;7517;48.400;11.770;2023-12-29T10:14:20;96477.00;;;14.50
14851;BMP180;7517;48.400;11.770;2023-12-29T10:17:01;96485.00;;;14.70
14851;BMP180;7517;48.400;11.770;2023-12-29T10:19:37;96471.00;;;14.80
14851;BMP180;7517;48.400;11.770;2023-12-29T10:22:17;96474.00;;;14.90
14851;BMP180;7517;48.400;11.770;2023-12-29T10:24:45;96485.00;;;15.10
14851;BMP180;7517;48.400;11.770;2023-12-29T10:27:13;96471.00;;;15.20
14851;BMP180;7517;48.400;11.770;2023-12-29T10:29:40;96466.00;;;15.30
14851;BMP180;7517;48.400;11.770;2023-12-29T10:32:07;96463.00;;;15.40
14851;BMP180;7517;48.400;11.770;2023-12-29T10:34:35;96464.00;;;15.50
14851;BMP180;7517;48.400;11.770;2023-12-29T10:37:03;96472.00;;;15.60
14851;BMP180;7517;48.400;11.770;2023-12-29T10:39:36;96460.00;;;15.70
14851;BMP180;7517;48.400;11.770;2023-12-29T10:42:05;96450.00;;;15.80
14851;BMP180;7517;48.400;11.770;2023-12-29T10:44:34;96444.00;;;15.90
14851;BMP180;7517;48.400;11.770;2023-12-29T10:47:08;96444.00;;;15.90
14851;BMP180;7517;48.400;11.770;2023-12-29T10:49:36;96441.00;;;16.00
14851;BMP180;7517;48.400;11.770;2023-12-29T10:52:11;96434.00;;;16.00
14851;BMP180;7517;48.400;11.770;2023-12-29T10:54:41;96440.00;;;16.00
14851;BMP180;7517;48.400;11.770;2023-12-29T10:57:11;96439.00;;;16.10
14851;BMP180;7517;48.400;11.770;2023-12-29T10:59:39;96447.00;;;16.10
14851;BMP180;7517;48.400;11.770;2023-12-29T11:02:06;96441.00;;;16.10
14851;BMP180;7517;48.400;11.770;2023-12-29T11:04:34;96435.00;;;16.20
14851;BMP180;7517;48.400;11.770;2023-12-29T11:07:01;96421.00;;;16.10
14851;BMP180;7517;48.400;11.770;2023-12-29T11:09:30;96427.00;;;16.10
14851;BMP180;7517;48.400;11.770;2023-12-29T11:12:02;96420.00;;;16.10
14851;BMP180;7517;48.400;11.770;2023-12-29T11:14:29;96425.00;;;16.00
14851;BMP180;7517;48.400;11.770;2023-12-29T11:16:58;96418.00;;;16.00
14851;BMP180;7517;48.400;11.770;2023-12-29T11:19:26;96420.00;;;15.90
14851;BMP180;7517;48.400;11.770;2023-12-29T11:21:56;96414.00;;;15.90
14851;BMP180;7517;48.400;11.770;2023-12-29T11:24:24;96422.00;;;15.90
14851;BMP180;7517;48.400;11.770;2023-12-29T11:26:51;96409.00;;;15.90
14851;BMP180;7517;48.400;11.770;2023-12-29T11:29:21;96406.00;;;15.90
14851;BMP180;7517;48.400;11.770;2023-12-29T11:31:51;96403.00;;;15.80
14851;BMP180;7517;48.400;11.770;2023-12-29T11:34:25;96413.00;;;15.90
14851;BMP180;7517;48.400;11.770;2023-12-29T11:37:29;96399.00;;;15.90
14851;BMP180;7517;48.400;11.770;2023-12-29T11:40:11;96398.00;;;15.90
14851;BMP180;7517;48.400;11.770;2023-12-29T11:42:44;96408.00;;;15.90
14851;BMP180;7517;48.400;11.770;2023-12-29T11:45:30;96398.00;;;15.90
14851;BMP180;7517;48.400;11.770;2023-12-29T11:48:00;96394.00;;;15.90
14851;BMP180;7517;48.400;11.770;2023-12-29T11:50:30;96392.00;;;16.00
14851;BMP180;7517;48.400;11.770;2023-12-29T11:52:58;96387.00;;;16.00
14851;BMP180;7517;48.400;11.770;2023-12-29T11:55:30;96379.00;;;15.90
14851;BMP180;7517;48.400;11.770;2023-12-29T11:57:58;96382.00;;;15.90
14851;BMP180;7517;48.400;11.770;2023-12-29T12:00:51;96387.00;;;15.90
14851;BMP180;7517;48.400;11.770;2023-12-29T12:03:24;96367.00;;;15.90
14851;BMP180;7517;48.400;11.770;2023-12-29T12:05:53;96362.00;;;15.90
14851;BMP180;7517;48.400;11.770;2023-12-29T12:08:30;96357.00;;;15.90
14851;BMP180;7517;48.400;11.770;2023-12-29T12:11:42;96359.00;;;15.80
14851;BMP180;7517;48.400;11.770;2023-12-29T12:14:10;96351.00;;;15.80
14851;BMP180;7517;48.400;11.770;2023-12-29T12:16:50;96350.00;;;15.80
14851;BMP180;7517;48.400;11.770;2023-12-29T12:19:20;96352.00;;;15.80
14851;BMP180;7517;48.400;11.770;2023-12-29T12:21:53;96355.00;;;15.80
14851;BMP180;7517;48.400;11.770;2023-12-29T12:24:21;96347.00;;;15.80
14851;BMP180;7517;48.400;11.770;2023-12-29T12:26:48;96355.00;;;15.80
14851;BMP180;7517;48.400;11.770;2023-12-29T12:29:17;96349.00;;;15.70
14851;BMP180;7517;48.400;11.770;2023-12-29T12:31:56;96339.00;;;15.70
14851;BMP180;7517;48.400;11.770;2023-12-29T12:34:24;96359.00;;;15.70
14851;BMP180;7517;48.400;11.770;2023-12-29T12:36:53;96347.00;;;15.70
14851;BMP180;7517;48.400;11.770;2023-12-29T12:39:22;96338.00;;;15.70
14851;BMP180;7517;48.400;11.770;2023-12-29T12:41:50;96343.00;;;15.70
14851;BMP180;7517;48.400;11.770;2023-12-29T12:44:18;96346.00;;;15.60
14851;BMP180;7517;48.400;11.770;2023-12-29T12:46:51;96345.00;;;15.60
14851;BMP180;7517;48.400;11.770;2023-12-29T12:49:24;96346.00;;;15.60
14851;BMP180;7517;48.400;11.770;2023-12-29T12:51:53;96346.00;;;15.60
14851;BMP180;7517;48.400;11.770;2023-12-29T12:54:21;96362.00;;;15.60
14851;BMP180;7517;48.400;11.770;2023-12-29T12:56:49;96358.00;;;15.60
14851;BMP180;7517;48.400;11.770;2023-12-29T12:59:17;96359.00;;;15.60
14851;BMP180;7517;48.400;11.770;2023-12-29T13:01:44;96359.00;;;15.60
14851;BMP180;7517;48.400;11.770;2023-12-29T13:04:12;96365.00;;;15.50
14851;BMP180;7517;48.400;11.770;2023-12-29T13:06:43;96364.00;;;15.50
14851;BMP180;7517;48.400;11.770;2023-12-29T13:09:10;96363.00;;;15.50
14851;BMP180;7517;48.400;11.770;2023-12-29T13:11:38;96361.00;;;15.50
14851;BMP180;7517;48.400;11.770;2023-12-29T13:14:06;96376.00;;;15.50
14851;BMP180;7517;48.400;11.770;2023-12-29T13:16:35;96371.00;;;15.50
14851;BMP180;7517;48.400;11.770;2023-12-29T13:19:18;96365.00;;;15.50
14851;BMP180;7517;48.400;11.770;2023-12-29T13:21:52;96370.00;;;15.50
14851;BMP180;7517;48.400;11.770;2023-12-29T13:24:21;96366.00;;;15.50
14851;BMP180;7517;48.400;11.770;2023-12-29T13:26:51;96374.00;;;15.50
14851;BMP180;7517;48.400;11.770;2023-12-29T13:29:21;96371.00;;;15.40
14851;BMP180;7517;48.400;11.770;2023-12-29T13:31:53;96376.00;;;15.40
14851;BMP180;7517;48.400;11.770;2023-12-29T13:34:27;96371.00;;;15.40
14851;BMP180;7517;48.400;11.770;2023-12-29T13:37:02;96375.00;;;15.40
14851;BMP180;7517;48.400;11.770;2023-12-29T13:39:39;96365.00;;;15.30
14851;BMP180;7517;48.400;11.770;2023-12-29T13:42:10;96369.00;;;15.30
14851;BMP180;7517;48.400;11.770;2023-12-29T13:44:41;96363.00;;;15.40
14851;BMP180;7517;48.400;11.770;2023-12-29T13:47:11;96362.00;;;15.40
14851;BMP180;7517;48.400;11.770;2023-12-29T13:49:39;96363.00;;;15.40
14851;BMP180;7517;48.400;11.770;2023-12-29T13:52:08;96359.00;;;15.40
14851;BMP180;7517;48.400;11.770;2023-12-29T13:54:41;96366.00;;;15.40
14851;BMP180;7517;48.400;11.770;2023-12-29T13:57:09;96371.00;;;15.40
14851;BMP180;7517;48.400;11.770;2023-12-29T13:59:36;96361.00;;;15.40
14851;BMP180;7517;48.400;11.770;2023-12-29T14:02:27;96357.00;;;15.40
14851;BMP180;7517;48.400;11.770;2023-12-29T14:05:14;96376.00;;;15.40
14851;BMP180;7517;48.400;11.770;2023-12-29T14:07:52;96361.00;;;15.40
14851;BMP180;7517;48.400;11.770;2023-12-29T14:10:20;96362.00;;;15.30
14851;BMP180;7517;48.400;11.770;2023-12-29T14:12:50;96368.00;;;15.30
14851;BMP180;7517;48.400;11.770;2023-12-29T14:15:17;96368.00;;;15.30
14851;BMP180;7517;48.400;11.770;2023-12-29T14:17:44;96360.00;;;15.20
14851;BMP180;7517;48.400;11.770;2023-12-29T14:20:12;96375.00;;;15.20
14851;BMP180;7517;48.400;11.770;2023-12-29T14:23:03;96367.00;;;15.20
14851;BMP180;7517;48.400;11.770;2023-12-29T14:25:31;96366.00;;;15.20
14851;BMP180;7517;48.400;11.770;2023-12-29T14:28:01;96372.00;;;15.10